createdAt,value
2023-04-16T00:30:35.644Z,99342.28
2023-04-16T00:34:38.902Z,99339.63
2023-04-16T00:38:42.151Z,99331.81
2023-04-16T00:42:45.195Z,99336.84
2023-04-16T00:46:50.219Z,99338.59
2023-04-16T00:50:55.209Z,99337.47
2023-04-16T00:54:58.356Z,99347.53
2023-04-16T00:59:01.570Z,99337.91
2023-04-16T01:03:06.680Z,99324.19
2023-04-16T01:07:10.185Z,99340.81
2023-04-16T01:11:13.427Z,99354.22
2023-04-16T01:15:16.530Z,99354.91
2023-04-16T01:19:21.020Z,99344.47
2023-04-16T01:23:25.851Z,99354.22
2023-04-16T01:27:29.034Z,99355.63
2023-04-16T01:31:32.219Z,99364.66
2023-04-16T01:35:35.269Z,99369.50
2023-04-16T01:39:39.891Z,99364.09
2023-04-16T01:43:42.989Z,99365.13
2023-04-16T01:47:46.056Z,99375.88
2023-04-16T01:51:49.593Z,99373.97
2023-04-16T01:55:54.076Z,99383.91
2023-04-16T01:59:57.085Z,99381.09
2023-04-16T02:04:00.223Z,99380.13
2023-04-16T02:08:03.583Z,99380.81
2023-04-16T02:12:09.877Z,99370.38
2023-04-16T02:16:12.948Z,99366.25
2023-04-16T02:20:16.393Z,99365.09
2023-04-16T02:24:19.423Z,99374.84
2023-04-16T02:28:23.954Z,99382.75
2023-04-16T02:32:27.214Z,99382.06
2023-04-16T02:36:31.733Z,99394.91
2023-04-16T02:40:34.908Z,99393.16
2023-04-16T02:44:39.513Z,99392.91
2023-04-16T02:48:42.570Z,99390.84
2023-04-16T02:52:45.948Z,99390.72
2023-04-16T02:56:49.028Z,99385.56
2023-04-16T03:00:54.328Z,99390.00
2023-04-16T03:04:57.630Z,99380.06
2023-04-16T03:09:00.697Z,99380.75
2023-04-16T03:13:04.279Z,99389.88
2023-04-16T03:17:08.976Z,99378.56
2023-04-16T03:21:12.058Z,99391.28
2023-04-16T03:25:15.348Z,99403.44
2023-04-16T03:29:18.489Z,99394.06
2023-04-16T03:33:22.990Z,99401.97
2023-04-16T03:37:26.407Z,99396.47
2023-04-16T03:41:29.540Z,99405.09
2023-04-16T03:45:32.742Z,99402.53
2023-04-16T03:49:37.119Z,99405.25
2023-04-16T03:53:40.258Z,99412.09
2023-04-16T03:57:43.364Z,99411.38
2023-04-16T04:01:46.794Z,99410.66
2023-04-16T04:05:51.350Z,99394.97
2023-04-16T04:09:54.749Z,99411.75
2023-04-16T04:13:57.799Z,99407.50
2023-04-16T04:18:01.011Z,99414.41
2023-04-16T04:22:05.911Z,99418.66
2023-04-16T04:26:08.874Z,99417.66
2023-04-16T04:30:13.153Z,99423.03
2023-04-16T04:34:16.212Z,99424.81
2023-04-16T04:38:22.173Z,99431.50
2023-04-16T04:42:26.016Z,99446.97
2023-04-16T04:46:29.309Z,99451.00
2023-04-16T04:50:32.068Z,99449.97
2023-04-16T04:54:36.619Z,99449.16
2023-04-16T04:58:39.437Z,99444.69
2023-04-16T05:02:42.694Z,99460.19
2023-04-16T05:06:45.729Z,99461.09
2023-04-16T05:10:50.136Z,99444.00
2023-04-16T05:14:53.076Z,99467.19
2023-04-16T05:18:56.187Z,99448.56
2023-04-16T05:22:59.144Z,99469.84
2023-04-16T05:27:03.579Z,99484.25
2023-04-16T05:31:06.933Z,99468.44
2023-04-16T05:35:11.094Z,99486.97
2023-04-16T05:39:14.146Z,99481.28
2023-04-16T05:43:18.890Z,99474.13
2023-04-16T05:47:21.941Z,99436.81
2023-04-16T05:51:26.332Z,99502.94
2023-04-16T05:55:29.098Z,99503.50
2023-04-16T05:59:34.818Z,99504.53
2023-04-16T06:03:37.827Z,99500.66
2023-04-16T06:07:40.827Z,99508.66
2023-04-16T06:11:43.890Z,99492.03
2023-04-16T06:15:48.544Z,99506.91
2023-04-16T06:19:51.593Z,99499.00
2023-04-16T06:23:56.179Z,99501.81
2023-04-16T06:27:59.116Z,99508.72
2023-04-16T06:32:03.950Z,99513.50
2023-04-16T06:36:06.885Z,99513.84
2023-04-16T06:40:10.946Z,99516.63
2023-04-16T06:44:14.665Z,99513.84
2023-04-16T06:48:19.276Z,99527.19
2023-04-16T06:52:22.411Z,99534.56
2023-04-16T06:56:25.115Z,99516.81
2023-04-16T07:00:28.452Z,99536.38
2023-04-16T07:04:32.794Z,99535.44
2023-04-16T07:08:35.881Z,99521.19
2023-04-16T07:12:38.978Z,99518.84
2023-04-16T07:16:42.307Z,99520.75
2023-04-16T07:20:46.901Z,99546.81
2023-04-16T07:24:49.894Z,99546.19
2023-04-16T07:28:53.045Z,99547.91
2023-04-16T07:32:56.063Z,99547.59
2023-04-16T07:37:00.920Z,99570.66
2023-04-16T07:41:04.221Z,99559.75
2023-04-16T07:45:08.521Z,99573.63
2023-04-16T07:49:11.840Z,99579.69
2023-04-16T07:53:16.324Z,99575.56
2023-04-16T07:57:19.305Z,99573.72
2023-04-16T08:01:22.859Z,99579.88
2023-04-16T08:05:25.821Z,99578.31
2023-04-16T08:09:30.332Z,99577.84
2023-04-16T08:13:33.762Z,99587.91
2023-04-16T08:17:37.958Z,99582.91
2023-04-16T08:21:41.216Z,99604.00
2023-04-16T08:25:45.595Z,99587.09
2023-04-16T08:29:48.692Z,99593.53
2023-04-16T08:33:51.643Z,99588.81
2023-04-16T08:37:54.707Z,99586.75
2023-04-16T08:41:59.656Z,99596.69
2023-04-16T08:46:03.239Z,99594.13
2023-04-16T08:50:06.542Z,99598.09
2023-04-16T08:54:11.170Z,99598.22
2023-04-16T08:58:16.529Z,99597.88
2023-04-16T09:02:19.684Z,99595.59
2023-04-16T09:06:23.094Z,99592.56
2023-04-16T09:10:26.700Z,99580.97
2023-04-16T09:14:30.711Z,99596.16
2023-04-16T09:18:33.850Z,99599.09
2023-04-16T09:22:36.856Z,99601.16
2023-04-16T09:26:40.049Z,99598.44
2023-04-16T09:30:48.138Z,99604.47
2023-04-16T09:34:59.347Z,99608.81
2023-04-16T09:39:02.615Z,99610.00
2023-04-16T09:43:12.509Z,99613.50
2023-04-16T09:47:18.397Z,99613.56
2023-04-16T09:51:21.533Z,99610.59
2023-04-16T09:55:27.982Z,99617.41
2023-04-16T09:59:34.395Z,99619.75
2023-04-16T10:03:40.035Z,99626.63
2023-04-16T10:07:43.523Z,99630.66
2023-04-16T10:11:46.652Z,99629.03
2023-04-16T10:15:50.002Z,99633.22
2023-04-16T10:19:55.976Z,99638.66
2023-04-16T10:23:59.061Z,99637.25
2023-04-16T10:28:01.946Z,99631.28
2023-04-16T10:32:05.393Z,99620.06
2023-04-16T10:36:10.619Z,99638.91
2023-04-16T10:40:24.584Z,99645.44
2023-04-16T10:44:27.968Z,99630.94
2023-04-16T10:48:38.724Z,99634.13
2023-04-16T10:53:20.756Z,99641.94
2023-04-16T10:57:23.797Z,99638.56
2023-04-16T11:01:34.947Z,99634.31
2023-04-16T11:05:48.054Z,99634.53
2023-04-16T11:09:58.074Z,99628.47
2023-04-16T11:14:01.260Z,99626.56
2023-04-16T11:18:06.894Z,99622.16
2023-04-16T11:22:11.680Z,99618.97
2023-04-16T11:26:26.283Z,99624.38
2023-04-16T11:30:30.931Z,99621.88
2023-04-16T11:34:34.016Z,99624.38
2023-04-16T11:38:38.100Z,99613.03
2023-04-16T11:42:43.523Z,99615.44
2023-04-16T11:46:46.485Z,99604.38
2023-04-16T11:50:57.038Z,99614.53
2023-04-16T11:55:00.919Z,99610.53
2023-04-16T11:59:13.241Z,99625.03
2023-04-16T12:03:16.883Z,99624.69
2023-04-16T12:07:19.912Z,99614.72
2023-04-16T12:11:23.292Z,99618.84
2023-04-16T12:15:45.023Z,99623.53
2023-04-16T12:19:53.025Z,99621.94
2023-04-16T12:23:55.725Z,99619.53
2023-04-16T12:27:59.045Z,99614.19
2023-04-16T12:32:03.213Z,99623.53
2023-04-16T12:36:18.844Z,99621.41
2023-04-16T12:40:21.749Z,99610.78
2023-04-16T12:44:25.200Z,99609.06
2023-04-16T12:48:30.272Z,99609.44
2023-04-16T12:52:33.474Z,99618.47
2023-04-16T12:56:39.267Z,99620.97
2023-04-16T13:00:42.396Z,99621.69
2023-04-16T13:04:46.861Z,99615.97
2023-04-16T13:08:49.650Z,99615.31
2023-04-16T13:12:52.847Z,99605.72
2023-04-16T13:16:55.647Z,99625.91
2023-04-16T13:21:00.436Z,99630.75
2023-04-16T13:25:03.324Z,99631.28
2023-04-16T13:29:06.496Z,99605.03
2023-04-16T13:33:09.440Z,99630.31
2023-04-16T13:37:15.395Z,99631.63
2023-04-16T13:41:18.325Z,99645.94
2023-04-16T13:45:21.892Z,99637.66
2023-04-16T13:49:25.457Z,99642.09
2023-04-16T13:53:32.973Z,99627.56
2023-04-16T13:57:36.673Z,99636.31
2023-04-16T14:01:40.080Z,99646.75
2023-04-16T14:05:43.420Z,99647.66
2023-04-16T14:09:47.750Z,99644.94
2023-04-16T14:13:51.483Z,99647.13
2023-04-16T14:17:55.071Z,99652.03
2023-04-16T14:21:58.117Z,99647.03
2023-04-16T14:26:02.812Z,99640.56
2023-04-16T14:30:07.073Z,99647.72
2023-04-16T14:34:09.919Z,99648.44
2023-04-16T14:38:12.951Z,99653.84
2023-04-16T14:42:17.434Z,99649.84
2023-04-16T14:46:20.161Z,99645.94
2023-04-16T14:50:23.508Z,99642.50
2023-04-16T14:54:26.606Z,99649.38
2023-04-16T14:58:31.795Z,99645.69
2023-04-16T15:02:35.493Z,99648.03
2023-04-16T15:06:38.468Z,99653.59
2023-04-16T15:10:43.516Z,99646.09
2023-04-16T15:14:48.011Z,99655.44
2023-04-16T15:18:51.597Z,99660.19
2023-04-16T15:22:54.389Z,99665.19
2023-04-16T15:26:58.063Z,99662.44
2023-04-16T15:31:02.532Z,99677.69
2023-04-16T15:35:06.271Z,99675.06
2023-04-16T15:39:09.736Z,99676.19
2023-04-16T15:43:12.878Z,99680.19
2023-04-16T15:47:17.170Z,99686.53
2023-04-16T15:51:20.528Z,99695.00
2023-04-16T15:55:23.214Z,99692.09
2023-04-16T15:59:26.532Z,99684.31
2023-04-16T16:03:33.030Z,99700.31
2023-04-16T16:07:37.605Z,99689.75
2023-04-16T16:11:41.462Z,99687.94
2023-04-16T16:15:44.322Z,99696.81
2023-04-16T16:19:49.335Z,99688.34
2023-04-16T16:23:52.627Z,99701.50
2023-04-16T16:27:55.562Z,99699.81
2023-04-16T16:31:58.551Z,99709.03
2023-04-16T16:36:02.984Z,99711.63
2023-04-16T16:40:07.804Z,99711.38
2023-04-16T16:44:10.598Z,99715.16
2023-04-16T16:48:13.562Z,99703.13
2023-04-16T16:52:18.132Z,99711.72
2023-04-16T16:56:21.129Z,99706.97
2023-04-16T17:00:24.372Z,99711.88
2023-04-16T17:04:27.232Z,99689.41
2023-04-16T17:08:31.777Z,99703.38
2023-04-16T17:12:34.576Z,99703.94
2023-04-16T17:16:37.539Z,99706.34
2023-04-16T17:20:40.573Z,99725.03
2023-04-16T17:24:45.169Z,99712.69
2023-04-16T17:28:48.089Z,99718.84
2023-04-16T17:32:50.992Z,99716.19
2023-04-16T17:36:54.120Z,99719.47
2023-04-16T17:40:58.877Z,99729.66
2023-04-16T17:45:02.112Z,99732.25
2023-04-16T17:49:05.199Z,99738.34
2023-04-16T17:53:08.010Z,99734.72
2023-04-16T17:57:12.508Z,99744.00
2023-04-16T18:01:15.638Z,99734.13
2023-04-16T18:05:19.108Z,99749.41
2023-04-16T18:09:22.006Z,99753.06
2023-04-16T18:13:26.642Z,99748.03
2023-04-16T18:17:29.408Z,99752.75
2023-04-16T18:21:32.276Z,99741.03
2023-04-16T18:25:35.454Z,99746.53
2023-04-16T18:29:40.740Z,99758.72
2023-04-16T18:33:56.773Z,99756.88
2023-04-16T18:38:01.679Z,99755.97
2023-04-16T18:42:05.264Z,99761.16
2023-04-16T18:46:09.477Z,99768.06
2023-04-16T18:50:12.423Z,99766.28
2023-04-16T18:54:15.856Z,99765.41
2023-04-16T18:58:18.998Z,99777.69
2023-04-16T19:02:24.186Z,99755.03
2023-04-16T19:06:27.907Z,99767.78
2023-04-16T19:10:31.076Z,99769.41
2023-04-16T19:14:34.266Z,99760.56
2023-04-16T19:18:38.638Z,99759.44
2023-04-16T19:22:41.671Z,99778.50
2023-04-16T19:26:44.448Z,99772.81
2023-04-16T19:30:47.320Z,99770.22
2023-04-16T19:34:51.405Z,99784.25
2023-04-16T19:38:54.310Z,99784.94
2023-04-16T19:42:57.239Z,99788.28
2023-04-16T19:46:59.985Z,99776.78
2023-04-16T19:51:05.588Z,99779.84
2023-04-16T19:55:09.499Z,99775.28
2023-04-16T19:59:12.309Z,99775.03
2023-04-16T20:03:15.099Z,99781.13
2023-04-16T20:07:19.282Z,99779.41
2023-04-16T20:11:21.871Z,99785.69
2023-04-16T20:15:24.526Z,99778.09
2023-04-16T20:19:33.666Z,99785.84
2023-04-16T20:23:37.927Z,99790.78
2023-04-16T20:27:40.628Z,99793.44
2023-04-16T20:31:44.407Z,99780.66
2023-04-16T20:35:47.804Z,99796.28
2023-04-16T20:39:54.109Z,99795.19
2023-04-16T20:43:56.922Z,99796.66
2023-04-16T20:48:00.380Z,99799.81
2023-04-16T20:52:03.575Z,99802.84
2023-04-16T20:56:09.208Z,99793.88
2023-04-16T21:00:12.855Z,99785.84
2023-04-16T21:04:15.971Z,99778.75
2023-04-16T21:08:19.169Z,99780.31
2023-04-16T21:12:23.253Z,99789.72
2023-04-16T21:16:25.972Z,99773.13
2023-04-16T21:20:30.481Z,99778.66
2023-04-16T21:24:33.529Z,99779.84
2023-04-16T21:28:37.607Z,99778.63
2023-04-16T21:32:40.264Z,99778.75
2023-04-16T21:36:42.907Z,99787.47
2023-04-16T21:40:46.681Z,99789.25
2023-04-16T21:44:50.723Z,99784.69
2023-04-16T21:48:53.807Z,99780.22
2023-04-16T21:52:56.610Z,99783.19
2023-04-16T21:56:59.399Z,99789.19
2023-04-16T22:01:03.747Z,99791.69
2023-04-16T22:05:07.430Z,99794.63
2023-04-16T22:09:10.352Z,99788.84
2023-04-16T22:13:13.988Z,99786.72
2023-04-16T22:17:18.208Z,99769.69
2023-04-16T22:21:21.043Z,99770.84
2023-04-16T22:25:24.165Z,99774.28
2023-04-16T22:29:27.052Z,99767.19
2023-04-16T22:33:31.585Z,99767.44
2023-04-16T22:37:34.767Z,99761.88
2023-04-16T22:41:37.514Z,99753.53
2023-04-16T22:45:41.405Z,99737.06
2023-04-16T22:49:45.772Z,99766.41
2023-04-16T22:53:48.446Z,99767.22
2023-04-16T22:57:51.142Z,99768.63
2023-04-16T23:01:54.227Z,99775.94
2023-04-16T23:05:58.666Z,99771.31
2023-04-16T23:10:01.440Z,99776.84
2023-04-16T23:14:05.036Z,99772.50
2023-04-16T23:18:07.875Z,99747.34
2023-04-16T23:22:12.246Z,99767.28
2023-04-16T23:26:14.937Z,99766.97
2023-04-16T23:30:18.101Z,99762.63
2023-04-16T23:34:20.927Z,99752.81
2023-04-16T23:38:25.193Z,99776.41
2023-04-16T23:42:28.049Z,99758.47
2023-04-16T23:46:31.170Z,99770.09
2023-04-16T23:50:34.046Z,99773.91
2023-04-16T23:54:38.459Z,99767.91
2023-04-16T23:58:41.162Z,99765.59
